Time;durP1;ratioP1;P1;durP2;ratioP2;P2;SDS_P1;SDS_P2;PMS_P1;PMS_P2;Temp;Humidity;BMP_temperature;BMP_pressure;BME280_temperature;BME280_humidity;BME280_pressure;Samples;Min_cycle;Max_cycle;Signal;HPM_P1;HPM_P2
2023/09/07 00:01:10;;;;;;;;;;;;;;;24.58;39.81;102149.24;106815;1269;25321;-53
2023/09/07 00:03:40;;;;;;;;;;;;;;;24.57;40.02;102146.09;106844;1272;25404;-49
2023/09/07 00:06:08;;;;;;;;;;;;;;;24.56;40.17;102144.92;106727;1257;25353;-50
2023/09/07 00:08:35;;;;;;;;;;;;;;;24.55;40.01;102145.33;106706;1271;24208;-49
2023/09/07 00:11:03;;;;;;;;;;;;;;;24.54;39.71;102145.21;106574;1270;25488;-50
2023/09/07 00:13:30;;;;;;;;;;;;;;;24.53;39.94;102142.08;106827;1266;24234;-52
2023/09/07 00:16:01;;;;;;;;;;;;;;;24.52;40.18;102145.33;106790;1270;22509;-48
2023/09/07 00:18:29;;;;;;;;;;;;;;;24.50;40.11;102147.93;106833;1270;25295;-54
2023/09/07 00:20:57;;;;;;;;;;;;;;;24.49;39.77;102148.58;106795;1266;22505;-49
2023/09/07 00:23:25;;;;;;;;;;;;;;;24.46;40.14;102148.69;106705;1268;22557;-52
2023/09/07 00:25:52;;;;;;;;;;;;;;;24.46;40.30;102152.09;106812;1266;22504;-50
2023/09/07 00:28:18;;;;;;;;;;;;;;;24.44;40.76;102152.17;106835;1272;25331;-53
2023/09/07 00:30:45;;;;;;;;;;;;;;;24.44;40.86;102150.43;106884;1259;22538;-49
2023/09/07 00:33:12;;;;;;;;;;;;;;;24.43;40.65;102150.48;106821;1272;25469;-50
2023/09/07 00:35:39;;;;;;;;;;;;;;;24.42;40.27;102155.85;106517;1273;387911;-50
2023/09/07 00:38:06;;;;;;;;;;;;;;;24.40;40.54;102149.94;106775;1267;25469;-53
2023/09/07 00:40:33;;;;;;;;;;;;;;;24.38;40.65;102148.81;106354;1273;25334;-51
2023/09/07 00:43:00;;;;;;;;;;;;;;;24.37;40.58;102143.06;106801;1273;25324;-54
2023/09/07 00:45:27;;;;;;;;;;;;;;;24.35;40.49;102141.93;106703;1263;25539;-50
2023/09/07 00:47:54;;;;;;;;;;;;;;;24.31;40.39;102144.25;106788;1274;25315;-55
2023/09/07 00:50:23;;;;;;;;;;;;;;;24.29;40.66;102150.76;106831;1259;22592;-50
2023/09/07 00:52:50;;;;;;;;;;;;;;;24.28;40.84;102150.81;106884;1266;25297;-49
2023/09/07 00:55:17;;;;;;;;;;;;;;;24.27;41.00;102150.71;106909;1256;25457;-50
2023/09/07 00:57:44;;;;;;;;;;;;;;;24.26;41.36;102152.69;106819;1263;25406;-48
2023/09/07 01:00:11;;;;;;;;;;;;;;;24.24;41.45;102152.80;106747;1263;25382;-49
2023/09/07 01:02:39;;;;;;;;;;;;;;;24.23;41.40;102152.30;106592;1262;25380;-51
2023/09/07 01:05:06;;;;;;;;;;;;;;;24.22;41.50;102153.25;106740;1266;25329;-50
2023/09/07 01:07:33;;;;;;;;;;;;;;;24.21;41.43;102152.23;106782;1269;25433;-49
2023/09/07 01:10:00;;;;;;;;;;;;;;;24.19;41.73;102150.60;106588;1273;25305;-53
2023/09/07 01:12:29;;;;;;;;;;;;;;;24.17;42.00;102147.34;106816;1269;25684;-49
2023/09/07 01:14:55;;;;;;;;;;;;;;;24.13;41.86;102146.83;106835;1266;25331;-49
2023/09/07 01:17:22;;;;;;;;;;;;;;;24.11;41.78;102147.30;106830;1272;25310;-50
2023/09/07 01:19:50;;;;;;;;;;;;;;;24.09;41.99;102148.70;106808;1271;25306;-52
2023/09/07 01:22:18;;;;;;;;;;;;;;;24.07;42.13;102152.02;106739;1276;25466;-52
2023/09/07 01:24:45;;;;;;;;;;;;;;;24.05;41.94;102151.59;106809;1259;25208;-49
2023/09/07 01:27:13;;;;;;;;;;;;;;;24.02;41.75;102148.68;106787;1260;24826;-50
2023/09/07 01:29:40;;;;;;;;;;;;;;;24.01;41.74;102150.86;106841;1270;25333;-52
2023/09/07 01:32:09;;;;;;;;;;;;;;;24.00;41.96;102153.94;106728;1270;22511;-50
2023/09/07 01:34:37;;;;;;;;;;;;;;;24.00;42.47;102147.75;106843;1270;25395;-49
2023/09/07 01:37:07;;;;;;;;;;;;;;;24.00;42.40;102150.23;106070;1272;1003483;-50
2023/09/07 01:39:34;;;;;;;;;;;;;;;24.00;42.22;102149.50;106797;1271;25315;-49
2023/09/07 01:42:01;;;;;;;;;;;;;;;24.01;42.28;102150.50;106834;1259;24037;-49
2023/09/07 01:44:29;;;;;;;;;;;;;;;24.02;42.24;102151.16;106776;1267;25296;-51
2023/09/07 01:46:56;;;;;;;;;;;;;;;24.03;42.25;102150.63;106749;1266;23033;-48
2023/09/07 01:49:24;;;;;;;;;;;;;;;24.02;42.19;102148.69;106521;1275;25378;-49
2023/09/07 01:51:52;;;;;;;;;;;;;;;24.03;42.13;102146.54;106776;1272;25316;-50
2023/09/07 01:54:20;;;;;;;;;;;;;;;24.04;42.09;102144.73;106691;1269;22525;-50
2023/09/07 01:56:47;;;;;;;;;;;;;;;24.04;42.10;102147.02;106547;1278;25555;-50
2023/09/07 01:59:14;;;;;;;;;;;;;;;24.04;42.04;102144.54;106753;1273;25337;-49
2023/09/07 02:01:41;;;;;;;;;;;;;;;24.04;41.95;102145.95;106509;1269;25458;-48
2023/09/07 02:04:08;;;;;;;;;;;;;;;24.05;42.10;102144.67;106838;1269;22511;-53
2023/09/07 02:06:35;;;;;;;;;;;;;;;24.05;42.60;102144.27;106754;1272;25340;-48
2023/09/07 02:09:04;;;;;;;;;;;;;;;24.06;43.02;102144.80;106543;1275;24345;-51
2023/09/07 02:11:31;;;;;;;;;;;;;;;24.06;43.76;102145.87;106809;1266;25376;-48
2023/09/07 02:13:58;;;;;;;;;;;;;;;24.05;44.82;102147.48;106497;1273;25494;-49
2023/09/07 02:16:26;;;;;;;;;;;;;;;24.04;44.98;102147.01;106733;1269;22584;-52
2023/09/07 02:19:00;;;;;;;;;;;;;;;24.04;45.82;102146.52;106643;1270;22509;-49
2023/09/07 02:21:27;;;;;;;;;;;;;;;24.02;45.68;102143.02;106439;1273;25321;-50
2023/09/07 02:23:54;;;;;;;;;;;;;;;23.99;46.22;102143.19;106600;1270;25314;-50
2023/09/07 02:26:21;;;;;;;;;;;;;;;23.95;46.38;102137.73;106695;1276;22519;-48
2023/09/07 02:28:48;;;;;;;;;;;;;;;23.94;46.43;102144.22;106703;1262;23879;-54
2023/09/07 02:31:15;;;;;;;;;;;;;;;23.91;46.62;102142.62;106319;1277;25459;-55
2023/09/07 02:33:42;;;;;;;;;;;;;;;23.87;47.71;102142.26;106702;1275;25309;-50
2023/09/07 02:36:09;;;;;;;;;;;;;;;23.83;48.39;102139.48;106646;1269;25461;-49
2023/09/07 02:38:36;;;;;;;;;;;;;;;23.80;48.49;102138.08;106719;1270;25379;-53
2023/09/07 02:41:03;;;;;;;;;;;;;;;23.75;48.27;102142.41;106813;1270;23072;-48
2023/09/07 02:43:30;;;;;;;;;;;;;;;23.71;48.63;102139.46;106818;1270;24212;-51
2023/09/07 02:45:58;;;;;;;;;;;;;;;23.67;48.89;102139.66;106787;1269;22522;-51
2023/09/07 02:48:25;;;;;;;;;;;;;;;23.63;49.19;102139.20;106690;1273;25385;-49
2023/09/07 02:50:52;;;;;;;;;;;;;;;23.59;49.25;102141.20;106815;1260;22512;-53
2023/09/07 02:53:21;;;;;;;;;;;;;;;23.53;49.30;102140.27;106366;1277;25530;-54
2023/09/07 02:55:48;;;;;;;;;;;;;;;23.46;49.47;102138.48;106376;1274;25319;-52
2023/09/07 02:58:15;;;;;;;;;;;;;;;23.43;49.81;102141.19;106557;1267;25519;-50
2023/09/07 03:00:47;;;;;;;;;;;;;;;23.38;50.07;102140.20;106633;1269;25382;-53
2023/09/07 03:03:15;;;;;;;;;;;;;;;23.32;49.97;102137.11;106591;1267;22593;-51
2023/09/07 03:05:43;;;;;;;;;;;;;;;23.27;49.90;102140.58;106191;1282;25330;-52
2023/09/07 03:08:10;;;;;;;;;;;;;;;23.21;49.97;102136.64;106455;1267;25326;-54
2023/09/07 03:10:39;;;;;;;;;;;;;;;23.16;50.13;102140.26;106833;1279;23300;-49
2023/09/07 03:13:06;;;;;;;;;;;;;;;23.13;50.03;102143.27;106463;1272;22522;-51
2023/09/07 03:15:34;;;;;;;;;;;;;;;23.11;50.07;102142.52;106598;1272;24362;-51
2023/09/07 03:18:01;;;;;;;;;;;;;;;23.09;50.38;102146.31;106570;1263;25371;-55
2023/09/07 03:20:29;;;;;;;;;;;;;;;23.08;50.52;102147.41;106576;1267;25469;-50
2023/09/07 03:22:56;;;;;;;;;;;;;;;23.06;50.21;102146.46;106707;1261;25377;-49
2023/09/07 03:25:23;;;;;;;;;;;;;;;23.03;50.26;102148.55;106786;1263;25450;-49
2023/09/07 03:27:50;;;;;;;;;;;;;;;23.01;50.41;102150.27;106817;1270;24025;-51
2023/09/07 03:30:18;;;;;;;;;;;;;;;23.00;50.41;102155.08;106795;1270;22511;-50
2023/09/07 03:32:46;;;;;;;;;;;;;;;22.98;50.05;102155.58;106690;1270;25467;-48
2023/09/07 03:35:13;;;;;;;;;;;;;;;22.95;50.11;102158.58;106823;1270;25305;-51
2023/09/07 03:37:41;;;;;;;;;;;;;;;22.92;49.95;102161.54;106805;1270;25306;-52
2023/09/07 03:40:09;;;;;;;;;;;;;;;22.91;50.35;102163.55;106780;1261;25306;-51
2023/09/07 03:42:37;;;;;;;;;;;;;;;22.90;50.90;102166.58;106580;1270;24325;-53
2023/09/07 03:45:05;;;;;;;;;;;;;;;22.89;51.02;102166.48;106851;1258;24235;-49
2023/09/07 03:47:32;;;;;;;;;;;;;;;22.88;51.11;102168.98;106783;1259;25344;-50
2023/09/07 03:50:00;;;;;;;;;;;;;;;22.88;51.18;102170.95;106850;1270;25344;-53
2023/09/07 03:52:29;;;;;;;;;;;;;;;22.87;51.15;102170.27;106859;1258;25315;-49
2023/09/07 03:54:57;;;;;;;;;;;;;;;22.86;51.15;102178.11;106811;1264;22514;-50
2023/09/07 03:57:25;;;;;;;;;;;;;;;22.85;51.25;102176.93;106801;1254;25306;-49
2023/09/07 03:59:52;;;;;;;;;;;;;;;22.85;51.23;102178.73;106828;1270;25454;-49
2023/09/07 04:02:20;;;;;;;;;;;;;;;22.84;51.30;102178.42;106775;1269;25334;-49
2023/09/07 04:04:51;;;;;;;;;;;;;;;22.83;50.88;102180.08;105275;1267;1003321;-51
2023/09/07 04:07:18;;;;;;;;;;;;;;;22.81;50.88;102180.50;106832;1267;25334;-51
2023/09/07 04:09:45;;;;;;;;;;;;;;;22.80;50.90;102178.08;106746;1270;25315;-49
2023/09/07 04:12:12;;;;;;;;;;;;;;;22.79;50.53;102176.55;106704;1271;25296;-50
2023/09/07 04:14:40;;;;;;;;;;;;;;;22.77;50.45;102180.19;106824;1270;25306;-51
2023/09/07 04:17:08;;;;;;;;;;;;;;;22.74;50.32;102182.10;106738;1267;25402;-51
2023/09/07 04:19:34;;;;;;;;;;;;;;;22.70;50.39;102186.71;106858;1270;25302;-51
2023/09/07 04:22:01;;;;;;;;;;;;;;;22.67;50.53;102195.19;106843;1260;25858;-50
2023/09/07 04:24:29;;;;;;;;;;;;;;;22.64;50.64;102189.14;106592;1268;25265;-49
2023/09/07 04:27:00;;;;;;;;;;;;;;;22.63;50.74;102190.05;106817;1267;25346;-49
2023/09/07 04:29:28;;;;;;;;;;;;;;;22.63;51.02;102191.64;106776;1260;25278;-50
2023/09/07 04:31:55;;;;;;;;;;;;;;;22.62;51.28;102193.83;106807;1261;25364;-48
2023/09/07 04:34:22;;;;;;;;;;;;;;;22.61;51.34;102201.11;106751;1270;25296;-54
2023/09/07 04:36:49;;;;;;;;;;;;;;;22.61;51.40;102191.73;106706;1267;22515;-55
2023/09/07 04:39:16;;;;;;;;;;;;;;;22.62;51.47;102197.17;106016;1273;1003647;-53
2023/09/07 04:41:43;;;;;;;;;;;;;;;22.65;51.66;102195.64;106542;1261;25318;-50
2023/09/07 04:44:10;;;;;;;;;;;;;;;22.68;51.79;102198.48;106774;1264;25315;-50
2023/09/07 04:46:37;;;;;;;;;;;;;;;22.73;51.71;102201.47;106791;1270;25305;-51
2023/09/07 04:49:04;;;;;;;;;;;;;;;22.75;51.54;102207.38;106459;1264;25393;-55
2023/09/07 04:51:31;;;;;;;;;;;;;;;22.76;51.43;102208.18;106351;1264;25501;-50
2023/09/07 04:53:58;;;;;;;;;;;;;;;22.75;51.10;102213.72;106849;1270;25306;-49
2023/09/07 04:56:27;;;;;;;;;;;;;;;22.74;51.22;102212.16;106822;1264;25526;-52
2023/09/07 04:58:54;;;;;;;;;;;;;;;22.75;51.44;102210.73;106824;1257;25246;-54
2023/09/07 05:01:21;;;;;;;;;;;;;;;22.75;51.49;102210.52;106778;1269;22589;-50
2023/09/07 05:03:51;;;;;;;;;;;;;;;22.77;51.42;102210.61;106790;1270;25562;-51
2023/09/07 05:06:18;;;;;;;;;;;;;;;22.79;51.33;102212.27;106689;1264;25347;-51
2023/09/07 05:08:45;;;;;;;;;;;;;;;22.81;51.30;102215.19;106791;1258;24252;-55
2023/09/07 05:11:12;;;;;;;;;;;;;;;22.83;51.22;102214.71;106705;1264;24191;-53
2023/09/07 05:13:39;;;;;;;;;;;;;;;22.86;50.87;102218.15;106809;1263;25347;-50
2023/09/07 05:16:06;;;;;;;;;;;;;;;22.88;50.82;102223.12;106746;1267;25411;-49
2023/09/07 05:18:34;;;;;;;;;;;;;;;22.92;50.78;102224.55;106828;1266;22706;-51
2023/09/07 05:21:12;;;;;;;;;;;;;;;22.96;50.70;102226.09;106713;1270;25315;-50
2023/09/07 05:23:39;;;;;;;;;;;;;;;23.02;50.76;102225.47;106734;1270;25496;-51
2023/09/07 05:26:06;;;;;;;;;;;;;;;23.06;50.75;102226.88;106668;1273;24400;-49
2023/09/07 05:28:34;;;;;;;;;;;;;;;23.09;50.71;102232.69;106668;1270;25452;-50
2023/09/07 05:31:01;;;;;;;;;;;;;;;23.13;50.70;102229.31;106753;1257;25306;-49
2023/09/07 05:33:28;;;;;;;;;;;;;;;23.16;50.49;102227.75;106742;1259;25465;-50
2023/09/07 05:35:55;;;;;;;;;;;;;;;23.18;50.04;102228.53;106733;1257;25427;-49
2023/09/07 05:38:22;;;;;;;;;;;;;;;23.18;49.73;102229.21;106807;1264;25334;-51
2023/09/07 05:40:53;;;;;;;;;;;;;;;23.19;49.46;102233.41;106791;1262;25452;-49
2023/09/07 05:43:21;;;;;;;;;;;;;;;23.19;49.40;102234.67;106779;1268;23907;-49
2023/09/07 05:45:48;;;;;;;;;;;;;;;23.19;49.24;102237.67;106725;1270;25488;-51
2023/09/07 05:48:18;;;;;;;;;;;;;;;23.21;49.32;102245.39;106650;1259;25344;-51
2023/09/07 05:50:46;;;;;;;;;;;;;;;23.24;49.50;102243.08;106606;1264;25392;-53
2023/09/07 05:53:13;;;;;;;;;;;;;;;23.27;49.66;102243.10;106826;1270;24198;-52
2023/09/07 05:55:40;;;;;;;;;;;;;;;23.30;49.27;102244.34;106889;1267;25424;-51
2023/09/07 05:58:08;;;;;;;;;;;;;;;23.36;48.93;102247.09;106854;1267;25456;-50
2023/09/07 06:00:39;;;;;;;;;;;;;;;23.41;48.69;102248.59;106812;1272;25337;-52
2023/09/07 06:03:07;;;;;;;;;;;;;;;23.47;48.22;102247.04;106757;1267;25316;-49
2023/09/07 06:05:35;;;;;;;;;;;;;;;23.52;47.87;102245.55;106770;1256;25436;-49
2023/09/07 06:08:02;;;;;;;;;;;;;;;23.58;47.77;102244.14;106628;1260;22538;-50
2023/09/07 06:10:30;;;;;;;;;;;;;;;23.70;48.13;102250.10;106702;1265;24217;-49
2023/09/07 06:12:58;;;;;;;;;;;;;;;23.81;47.76;102252.46;106675;1270;25337;-49
2023/09/07 06:15:28;;;;;;;;;;;;;;;23.92;47.59;102254.59;106450;1272;25305;-50
2023/09/07 06:17:56;;;;;;;;;;;;;;;24.00;47.21;102258.55;106504;1276;25465;-50
2023/09/07 06:20:23;;;;;;;;;;;;;;;24.06;47.35;102255.59;106329;1269;25337;-51
2023/09/07 06:22:50;;;;;;;;;;;;;;;24.13;46.99;102261.03;106456;1259;25321;-49
2023/09/07 06:25:17;;;;;;;;;;;;;;;24.19;46.69;102266.55;106501;1263;25389;-51
2023/09/07 06:27:45;;;;;;;;;;;;;;;24.27;46.60;102267.19;106545;1272;25348;-50
2023/09/07 06:30:12;;;;;;;;;;;;;;;24.38;46.46;102267.99;106471;1263;25399;-51
2023/09/07 06:32:40;;;;;;;;;;;;;;;24.47;46.23;102268.56;106541;1269;25397;-49
2023/09/07 06:35:08;;;;;;;;;;;;;;;24.55;46.16;102270.08;106534;1269;22602;-51
2023/09/07 06:37:36;;;;;;;;;;;;;;;24.61;46.20;102268.84;106336;1272;25312;-49
2023/09/07 06:40:03;;;;;;;;;;;;;;;24.66;46.27;102269.42;106338;1268;24022;-52
2023/09/07 06:42:31;;;;;;;;;;;;;;;24.71;45.93;102265.77;106213;1273;25367;-52
2023/09/07 06:45:04;;;;;;;;;;;;;;;24.76;45.71;102263.89;106466;1267;24342;-50
2023/09/07 06:47:32;;;;;;;;;;;;;;;24.80;45.57;102266.52;106469;1269;25454;-53
2023/09/07 06:50:00;;;;;;;;;;;;;;;24.86;45.57;102262.66;106913;1267;25361;-53
2023/09/07 06:52:28;;;;;;;;;;;;;;;24.92;45.11;102263.86;106741;1264;25561;-49
2023/09/07 06:54:55;;;;;;;;;;;;;;;24.97;44.86;102259.52;106757;1269;25344;-49
2023/09/07 06:57:23;;;;;;;;;;;;;;;25.00;44.85;102261.77;106773;1267;25383;-49
2023/09/07 06:59:51;;;;;;;;;;;;;;;25.03;45.06;102263.91;106907;1267;22625;-50
2023/09/07 07:02:19;;;;;;;;;;;;;;;25.06;44.68;102257.55;106610;1270;23948;-48
2023/09/07 07:04:46;;;;;;;;;;;;;;;25.11;45.07;102259.94;106933;1269;25465;-51
2023/09/07 07:07:15;;;;;;;;;;;;;;;25.19;44.97;102261.03;106740;1266;25326;-49
2023/09/07 07:09:42;;;;;;;;;;;;;;;25.31;44.62;102260.14;106748;1257;22515;-49
2023/09/07 07:12:09;;;;;;;;;;;;;;;25.43;44.19;102261.05;106925;1256;25377;-51
2023/09/07 07:14:37;;;;;;;;;;;;;;;25.55;44.11;102259.06;106862;1257;23245;-53
2023/09/07 07:17:04;;;;;;;;;;;;;;;25.69;43.98;102261.37;106771;1255;22633;-50
2023/09/07 07:19:32;;;;;;;;;;;;;;;25.82;43.85;102258.23;106783;1260;25305;-52
2023/09/07 07:22:01;;;;;;;;;;;;;;;26.02;43.86;102268.08;107027;1256;26580;-50
2023/09/07 07:24:28;;;;;;;;;;;;;;;26.23;43.37;102268.70;106978;1264;25364;-52
2023/09/07 07:26:55;;;;;;;;;;;;;;;26.45;43.17;102271.89;106653;1260;25379;-53
2023/09/07 07:29:22;;;;;;;;;;;;;;;26.61;42.87;102267.80;106946;1267;25343;-51
2023/09/07 07:31:49;;;;;;;;;;;;;;;26.70;42.70;102264.92;106786;1259;25462;-50
2023/09/07 07:34:16;;;;;;;;;;;;;;;26.72;42.89;102263.37;106692;1270;24191;-50
2023/09/07 07:36:44;;;;;;;;;;;;;;;26.68;43.33;102259.70;107188;1259;23320;-51
2023/09/07 07:39:11;;;;;;;;;;;;;;;26.60;43.59;102258.27;106803;1259;24417;-53
2023/09/07 07:41:38;;;;;;;;;;;;;;;26.53;43.83;102252.52;106805;1261;23906;-52
2023/09/07 07:44:09;;;;;;;;;;;;;;;26.50;44.14;102250.00;106830;1256;25268;-50
2023/09/07 07:46:36;;;;;;;;;;;;;;;26.51;43.92;102251.76;106913;1258;25319;-49
2023/09/07 07:49:03;;;;;;;;;;;;;;;26.53;43.75;102252.71;106833;1270;25305;-49
2023/09/07 07:51:30;;;;;;;;;;;;;;;26.54;43.47;102248.52;106891;1264;25435;-50
2023/09/07 07:53:57;;;;;;;;;;;;;;;26.55;43.63;102248.96;106047;1256;1003059;-50
2023/09/07 07:56:25;;;;;;;;;;;;;;;26.58;43.49;102245.96;106850;1257;23176;-49
2023/09/07 07:58:54;;;;;;;;;;;;;;;26.60;44.08;102244.40;106789;1259;22507;-50
2023/09/07 08:01:21;;;;;;;;;;;;;;;26.62;44.41;102243.02;106819;1267;25490;-51
2023/09/07 08:03:49;;;;;;;;;;;;;;;26.63;44.40;102241.17;106838;1259;22529;-50
2023/09/07 08:06:17;;;;;;;;;;;;;;;26.67;44.15;102244.13;106985;1259;25273;-52
2023/09/07 08:08:46;;;;;;;;;;;;;;;26.70;43.60;102241.94;106774;1263;22512;-50
2023/09/07 08:11:14;;;;;;;;;;;;;;;26.74;43.27;102240.48;106837;1267;25337;-49
2023/09/07 08:13:44;;;;;;;;;;;;;;;26.73;43.10;102234.30;107150;1260;25396;-50
2023/09/07 08:16:10;;;;;;;;;;;;;;;26.73;42.75;102231.30;106789;1263;22514;-50
2023/09/07 08:18:41;;;;;;;;;;;;;;;26.75;42.41;102235.42;106722;1260;25465;-50
2023/09/07 08:21:08;;;;;;;;;;;;;;;26.80;42.34;102230.81;106874;1270;25361;-50
2023/09/07 08:23:36;;;;;;;;;;;;;;;26.86;42.55;102229.18;106891;1263;22740;-49
2023/09/07 08:26:05;;;;;;;;;;;;;;;26.92;42.39;102226.08;106976;1260;22564;-49
2023/09/07 08:28:32;;;;;;;;;;;;;;;26.99;42.10;102223.84;106751;1259;24250;-52
2023/09/07 08:31:00;;;;;;;;;;;;;;;27.06;41.93;102219.59;107064;1257;25466;-51
2023/09/07 08:33:29;;;;;;;;;;;;;;;27.12;40.95;102218.45;107244;1260;25380;-51
2023/09/07 08:35:57;;;;;;;;;;;;;;;27.20;41.46;102216.16;106999;1266;25364;-51
2023/09/07 08:38:27;;;;;;;;;;;;;;;27.26;41.36;102215.86;106816;1267;24266;-50
2023/09/07 08:40:55;;;;;;;;;;;;;;;27.33;41.38;102214.36;106928;1271;24315;-52
2023/09/07 08:43:23;;;;;;;;;;;;;;;27.39;41.84;102212.70;106478;1275;25318;-50
2023/09/07 08:46:02;;;;;;;;;;;;;;;27.47;41.74;102218.38;106694;1261;25374;-50
2023/09/07 08:48:29;;;;;;;;;;;;;;;27.55;42.80;102214.80;106389;1273;23852;-50
2023/09/07 08:50:57;;;;;;;;;;;;;;;27.61;43.33;102212.80;106856;1266;23846;-51
2023/09/07 08:53:25;;;;;;;;;;;;;;;27.66;43.04;102214.20;106689;1278;22584;-53
2023/09/07 08:55:52;;;;;;;;;;;;;;;27.72;43.14;102212.69;106613;1261;25415;-49
2023/09/07 08:58:19;;;;;;;;;;;;;;;27.77;43.52;102208.98;107114;1262;23885;-52
2023/09/07 09:00:46;;;;;;;;;;;;;;;27.81;42.50;102210.29;107510;1268;25348;-50
2023/09/07 09:03:13;;;;;;;;;;;;;;;27.87;42.15;102210.50;106942;1270;25315;-51
2023/09/07 09:05:41;;;;;;;;;;;;;;;27.96;42.77;102214.69;106771;1266;25264;-55
2023/09/07 09:08:08;;;;;;;;;;;;;;;28.07;43.17;102220.71;106621;1270;25343;-51
2023/09/07 09:10:38;;;;;;;;;;;;;;;28.16;43.09;102218.97;106841;1261;24223;-52
2023/09/07 09:13:06;;;;;;;;;;;;;;;28.25;43.30;102215.11;106856;1264;23193;-53
2023/09/07 09:15:32;;;;;;;;;;;;;;;28.31;42.40;102213.58;107164;1268;24356;-51
2023/09/07 09:18:08;;;;;;;;;;;;;;;28.35;42.88;102210.80;107658;1265;25316;-51
2023/09/07 09:20:37;;;;;;;;;;;;;;;28.39;43.65;102208.01;107033;1261;22733;-53
2023/09/07 09:23:04;;;;;;;;;;;;;;;28.42;43.81;102205.80;106803;1275;24218;-53
2023/09/07 09:25:32;;;;;;;;;;;;;;;28.46;43.84;102207.30;107374;1272;22539;-51
2023/09/07 09:28:00;;;;;;;;;;;;;;;28.51;43.19;102206.77;107535;1270;22519;-52
2023/09/07 09:30:28;;;;;;;;;;;;;;;28.56;42.07;102206.06;107306;1260;25391;-52
2023/09/07 09:32:56;;;;;;;;;;;;;;;28.60;41.30;102202.17;106850;1272;22652;-52
2023/09/07 09:35:24;;;;;;;;;;;;;;;28.64;40.88;102199.32;106600;1270;24272;-50
2023/09/07 09:37:51;;;;;;;;;;;;;;;28.69;40.48;102193.94;106927;1255;25840;-49
2023/09/07 09:40:18;;;;;;;;;;;;;;;28.75;40.55;102187.08;106700;1267;22556;-49
2023/09/07 09:42:46;;;;;;;;;;;;;;;28.80;40.21;102187.75;106796;1261;25350;-52
2023/09/07 09:45:13;;;;;;;;;;;;;;;28.86;40.14;102186.38;107124;1270;25435;-50
2023/09/07 09:47:41;;;;;;;;;;;;;;;28.92;39.23;102180.36;106973;1259;25316;-50
2023/09/07 09:50:09;;;;;;;;;;;;;;;28.97;38.36;102181.45;106881;1260;25433;-51
2023/09/07 09:52:37;;;;;;;;;;;;;;;29.02;38.11;102175.25;106788;1263;24396;-51
2023/09/07 09:55:07;;;;;;;;;;;;;;;29.06;37.63;102169.71;107069;1258;22769;-50
2023/09/07 09:57:34;;;;;;;;;;;;;;;29.12;36.61;102166.41;106841;1262;22615;-49
2023/09/07 10:00:15;;;;;;;;;;;;;;;29.19;36.63;102167.17;106969;1259;22601;-49
2023/09/07 10:02:48;;;;;;;;;;;;;;;29.23;36.38;102159.64;107266;1267;23314;-50
2023/09/07 10:05:16;;;;;;;;;;;;;;;29.28;36.14;102159.81;106878;1259;22514;-51
2023/09/07 10:07:47;;;;;;;;;;;;;;;29.32;36.25;102159.13;106848;1260;25319;-52
2023/09/07 10:10:14;;;;;;;;;;;;;;;29.36;36.24;102165.06;107226;1260;25306;-51
2023/09/07 10:12:42;;;;;;;;;;;;;;;29.38;36.49;102166.67;106388;1262;22555;-50
2023/09/07 10:15:27;;;;;;;;;;;;;;;29.39;36.71;102170.91;107058;1256;25340;-50
2023/09/07 10:18:04;;;;;;;;;;;;;;;29.36;36.79;102166.66;107096;1269;22516;-50
2023/09/07 10:20:51;;;;;;;;;;;;;;;29.33;37.25;102162.27;106805;1259;25366;-51
2023/09/07 10:23:19;;;;;;;;;;;;;;;29.27;37.74;102158.95;107108;1260;26625;-53
2023/09/07 10:25:49;;;;;;;;;;;;;;;29.30;37.90;102158.74;107136;1255;25309;-50
2023/09/07 10:28:19;;;;;;;;;;;;;;;29.35;37.92;102159.43;107062;1255;25350;-52
2023/09/07 10:30:57;;;;;;;;;;;;;;;29.35;37.91;102158.13;106905;1259;25389;-49
2023/09/07 10:33:24;;;;;;;;;;;;;;;29.37;37.10;102157.12;106858;1256;25315;-50
2023/09/07 10:35:51;;;;;;;;;;;;;;;29.39;37.14;102159.27;106795;1256;25434;-50
2023/09/07 10:38:18;;;;;;;;;;;;;;;29.42;37.47;102155.11;107087;1259;25305;-52
2023/09/07 10:40:45;;;;;;;;;;;;;;;29.42;37.61;102151.50;107175;1259;24014;-51
2023/09/07 10:43:12;;;;;;;;;;;;;;;29.43;36.30;102147.54;107170;1254;25316;-50
2023/09/07 10:45:39;;;;;;;;;;;;;;;29.45;35.42;102147.36;107044;1268;25497;-49
2023/09/07 10:48:07;;;;;;;;;;;;;;;29.48;35.13;102140.48;106813;1259;25328;-50
2023/09/07 10:50:44;;;;;;;;;;;;;;;29.53;34.76;102140.48;107250;1261;25325;-49
2023/09/07 10:53:12;;;;;;;;;;;;;;;29.57;34.06;102139.75;106865;1256;24342;-50
2023/09/07 10:55:39;;;;;;;;;;;;;;;29.61;33.81;102136.21;107205;1255;25370;-55
2023/09/07 10:58:08;;;;;;;;;;;;;;;29.66;33.64;102134.38;107148;1263;22510;-50
2023/09/07 11:00:36;;;;;;;;;;;;;;;29.71;33.72;102129.29;107430;1259;24412;-49
2023/09/07 11:03:06;;;;;;;;;;;;;;;29.75;33.41;102125.77;106888;1278;25343;-51
2023/09/07 11:05:36;;;;;;;;;;;;;;;29.79;33.18;102123.32;107039;1264;25408;-53
2023/09/07 11:08:05;;;;;;;;;;;;;;;29.82;33.24;102124.54;107021;1254;23302;-52
2023/09/07 11:10:32;;;;;;;;;;;;;;;29.84;32.82;102125.77;106959;1262;22604;-50
2023/09/07 11:13:06;;;;;;;;;;;;;;;29.87;32.84;102127.66;106829;1269;25328;-50
2023/09/07 11:15:33;;;;;;;;;;;;;;;29.89;33.00;102125.05;106600;1260;25316;-51
2023/09/07 11:18:07;;;;;;;;;;;;;;;29.91;32.92;102119.83;106591;1273;22505;-52
2023/09/07 11:20:39;;;;;;;;;;;;;;;29.95;33.16;102113.98;106618;1256;25465;-51
2023/09/07 11:23:07;;;;;;;;;;;;;;;29.97;32.98;102117.03;106768;1272;25350;-49
2023/09/07 11:25:34;;;;;;;;;;;;;;;30.00;33.18;102113.22;106860;1270;22511;-50
2023/09/07 11:28:02;;;;;;;;;;;;;;;30.01;32.83;102112.17;106776;1260;25418;-50
2023/09/07 11:30:31;;;;;;;;;;;;;;;30.05;32.92;102107.60;106797;1271;25392;-50
2023/09/07 11:33:01;;;;;;;;;;;;;;;30.08;32.44;102104.46;106832;1259;25316;-51
2023/09/07 11:35:29;;;;;;;;;;;;;;;30.12;32.39;102096.44;106641;1270;23852;-50
2023/09/07 11:37:55;;;;;;;;;;;;;;;30.15;32.19;102094.91;106732;1267;25341;-53
2023/09/07 11:40:22;;;;;;;;;;;;;;;30.16;32.25;102089.95;106815;1261;25337;-49
2023/09/07 11:42:52;;;;;;;;;;;;;;;30.18;32.37;102088.73;106957;1261;25436;-53
2023/09/07 11:45:20;;;;;;;;;;;;;;;30.20;32.31;102080.18;106718;1275;25351;-48
2023/09/07 11:47:47;;;;;;;;;;;;;;;30.22;32.15;102075.02;107098;1256;25363;-50
2023/09/07 11:50:16;;;;;;;;;;;;;;;30.24;31.72;102076.63;106891;1259;25364;-53
2023/09/07 11:52:44;;;;;;;;;;;;;;;30.27;31.88;102076.38;107190;1256;25343;-54
2023/09/07 11:55:13;;;;;;;;;;;;;;;30.31;31.65;102073.41;107026;1263;24306;-53
2023/09/07 11:57:41;;;;;;;;;;;;;;;30.34;31.79;102073.08;107090;1256;25428;-54
2023/09/07 12:00:11;;;;;;;;;;;;;;;30.37;31.71;102068.38;107191;1259;22577;-50
2023/09/07 12:02:38;;;;;;;;;;;;;;;30.39;31.81;102063.52;107135;1265;22529;-51
2023/09/07 12:05:07;;;;;;;;;;;;;;;30.43;31.97;102059.63;107314;1256;23294;-53
2023/09/07 12:07:35;;;;;;;;;;;;;;;30.46;32.76;102060.02;107098;1264;24343;-49
2023/09/07 12:10:02;;;;;;;;;;;;;;;30.51;33.26;102059.33;107129;1259;25331;-51
2023/09/07 12:12:29;;;;;;;;;;;;;;;30.55;33.59;102062.38;107248;1254;25378;-54
2023/09/07 12:14:56;;;;;;;;;;;;;;;30.60;33.80;102060.04;106868;1257;24495;-49
2023/09/07 12:17:23;;;;;;;;;;;;;;;30.62;33.78;102058.75;106869;1261;25465;-50
2023/09/07 12:19:50;;;;;;;;;;;;;;;30.66;33.71;102058.72;107168;1259;25299;-49
2023/09/07 12:22:18;;;;;;;;;;;;;;;30.70;33.38;102057.31;106855;1254;25360;-52
2023/09/07 12:24:45;;;;;;;;;;;;;;;30.74;33.42;102054.48;107012;1267;25340;-52
2023/09/07 12:27:12;;;;;;;;;;;;;;;30.78;33.61;102052.86;107033;1263;25442;-52
2023/09/07 12:29:39;;;;;;;;;;;;;;;30.82;33.57;102049.83;107370;1269;22505;-51